Terminal Aerodrome Forecast
Issued by NWS

Home | Current Version | Previous Version | Text Only | Print | Product List | Glossary On
Versions: 1 2 3 4 5 6 7 8 9 10 11 12 13 14 15 16 17 18 19 20
000
FTUS43 KGRR 220700 AAA
TAFAZO
TAF AMD
KAZO 220736Z 2208/2306 18012KT P6SM OVC029
     FM220900 18012KT 6SM -FZRA BR OVC018
     FM221300 21014G23KT 5SM -RA BR OVC015
     FM221700 21012KT 2SM BR VCSH OVC007=

USA.gov is the U.S. government's official web portal to all federal, state and local government web resources and services.